createdAt,value
2018-09-08T00:02:00.773Z,27.50
2018-09-08T00:04:33.092Z,27.50
2018-09-08T00:07:09.998Z,27.40
2018-09-08T00:09:42.687Z,27.40
2018-09-08T00:12:14.792Z,27.30
2018-09-08T00:14:45.859Z,27.30
2018-09-08T00:17:22.926Z,27.30
2018-09-08T00:20:00.299Z,27.30
2018-09-08T00:22:37.522Z,27.30
2018-09-08T00:25:14.274Z,27.30
2018-09-08T00:27:55.069Z,27.30
2018-09-08T00:30:27.961Z,27.30
2018-09-08T00:33:00.251Z,27.20
2018-09-08T00:35:32.580Z,27.20
2018-09-08T00:38:04.718Z,27.20
2018-09-08T00:40:37.034Z,27.00
2018-09-08T00:43:09.223Z,26.70
2018-09-08T00:45:41.522Z,26.20
2018-09-08T00:48:13.939Z,26.00
2018-09-08T00:50:46.028Z,25.70
2018-09-08T00:53:18.362Z,25.50
2018-09-08T00:55:50.779Z,25.30
2018-09-08T00:58:22.952Z,25.10
2018-09-08T01:00:55.731Z,24.80
2018-09-08T01:03:28.453Z,24.50
2018-09-08T01:06:00.747Z,24.40
2018-09-08T01:08:33.138Z,24.20
2018-09-08T01:11:05.901Z,24.10
2018-09-08T01:13:38.460Z,23.90
2018-09-08T01:16:10.999Z,23.80
2018-09-08T01:18:43.581Z,23.70
2018-09-08T01:21:16.022Z,23.60
2018-09-08T01:23:51.201Z,23.60
2018-09-08T01:26:24.346Z,23.40
2018-09-08T01:28:56.695Z,23.30
2018-09-08T01:31:29.130Z,23.30
2018-09-08T01:34:01.522Z,23.20
2018-09-08T01:36:33.985Z,23.00
2018-09-08T01:39:06.985Z,22.80
2018-09-08T01:41:39.584Z,22.70
2018-09-08T01:44:11.979Z,22.60
2018-09-08T01:46:44.676Z,22.50
2018-09-08T01:49:17.119Z,22.50
2018-09-08T01:51:49.864Z,22.40
2018-09-08T01:54:22.491Z,22.40
2018-09-08T01:56:56.689Z,22.30
2018-09-08T01:59:29.052Z,22.10
2018-09-08T02:02:01.446Z,22.00
2018-09-08T02:04:33.797Z,21.90
2018-09-08T02:07:06.496Z,21.70
2018-09-08T02:09:39.222Z,21.70
2018-09-08T02:12:12.108Z,21.50
2018-09-08T02:14:44.712Z,21.50
2018-09-08T02:17:17.456Z,21.40
2018-09-08T02:19:50.377Z,21.30
2018-09-08T02:22:22.838Z,21.30
2018-09-08T02:24:55.170Z,21.10
2018-09-08T02:27:27.741Z,21.10
2018-09-08T02:30:00.136Z,21.00
2018-09-08T02:32:32.484Z,20.90
2018-09-08T02:35:04.721Z,20.90
2018-09-08T02:37:37.259Z,20.80
2018-09-08T02:40:09.705Z,20.70
2018-09-08T02:42:42.072Z,20.50
2018-09-08T02:45:14.368Z,20.50
2018-09-08T02:47:46.756Z,20.50
2018-09-08T02:50:33.719Z,20.40
2018-09-08T02:53:03.532Z,20.30
2018-09-08T02:55:33.694Z,20.30
2018-09-08T02:58:03.714Z,20.30
2018-09-08T03:00:33.529Z,20.20
2018-09-08T03:03:03.315Z,20.10
2018-09-08T03:05:33.011Z,20.10
2018-09-08T03:08:02.336Z,20.00
2018-09-08T03:10:32.048Z,19.90
2018-09-08T03:13:02.121Z,19.80
2018-09-08T03:15:31.667Z,19.70
2018-09-08T03:18:01.001Z,19.70
2018-09-08T03:20:31.334Z,19.60
2018-09-08T03:23:00.593Z,19.50
2018-09-08T03:25:30.142Z,19.40
2018-09-08T03:27:59.921Z,19.30
2018-09-08T03:30:29.818Z,19.30
2018-09-08T03:32:59.566Z,19.20
2018-09-08T03:35:29.256Z,19.20
2018-09-08T03:37:58.649Z,19.20
2018-09-08T03:40:28.387Z,19.10
2018-09-08T03:42:58.343Z,19.00
2018-09-08T03:45:28.187Z,19.00
2018-09-08T03:47:57.925Z,19.00
2018-09-08T03:50:27.382Z,19.00
2018-09-08T03:52:56.964Z,18.90
2018-09-08T03:55:26.512Z,18.90
2018-09-08T03:57:56.229Z,18.80
2018-09-08T04:00:25.500Z,18.80
2018-09-08T04:02:58.174Z,18.80
2018-09-08T04:05:31.871Z,18.70
2018-09-08T04:08:04.321Z,18.80
2018-09-08T04:10:36.695Z,18.70
2018-09-08T04:13:09.563Z,18.60
2018-09-08T04:15:42.362Z,18.60
2018-09-08T04:18:14.852Z,18.50
2018-09-08T04:20:47.519Z,18.50
2018-09-08T04:23:19.984Z,18.50
2018-09-08T04:25:52.440Z,18.40
2018-09-08T04:28:24.995Z,18.30
2018-09-08T04:30:57.316Z,18.30
2018-09-08T04:33:29.685Z,18.20
2018-09-08T04:36:01.952Z,18.20
2018-09-08T04:38:34.442Z,18.20
2018-09-08T04:41:06.719Z,18.10
2018-09-08T04:43:39.088Z,18.10
2018-09-08T04:46:11.391Z,18.10
2018-09-08T04:48:43.395Z,18.00
2018-09-08T04:51:16.844Z,17.90
2018-09-08T04:53:48.853Z,17.90
2018-09-08T04:56:21.020Z,17.90
2018-09-08T04:58:53.180Z,17.80
2018-09-08T05:01:25.421Z,17.80
2018-09-08T05:03:57.513Z,17.70
2018-09-08T05:06:30.485Z,17.60
2018-09-08T05:09:02.600Z,17.50
2018-09-08T05:11:34.568Z,17.50
2018-09-08T05:14:06.510Z,17.40
2018-09-08T05:16:38.713Z,17.30
2018-09-08T05:19:10.712Z,17.20
2018-09-08T05:21:42.672Z,17.10
2018-09-08T05:24:14.660Z,17.10
2018-09-08T05:26:46.812Z,17.00
2018-09-08T05:29:18.959Z,16.90
2018-09-08T05:31:50.898Z,16.90
2018-09-08T05:34:22.963Z,16.80
2018-09-08T05:36:54.861Z,16.70
2018-09-08T05:39:26.825Z,16.70
2018-09-08T05:41:59.101Z,16.60
2018-09-08T05:44:30.959Z,16.50
2018-09-08T05:47:02.913Z,16.50
2018-09-08T05:49:34.869Z,16.50
2018-09-08T05:52:07.258Z,16.50
2018-09-08T05:54:39.710Z,16.50
2018-09-08T05:57:11.999Z,16.50
2018-09-08T05:59:44.016Z,16.30
2018-09-08T06:02:16.122Z,16.30
2018-09-08T06:04:48.136Z,16.30
2018-09-08T06:07:20.213Z,16.20
2018-09-08T06:09:52.303Z,16.20
2018-09-08T06:12:24.588Z,16.20
2018-09-08T06:14:56.743Z,16.00
2018-09-08T06:17:28.766Z,16.00
2018-09-08T06:20:01.081Z,15.90
2018-09-08T06:22:33.054Z,15.90
2018-09-08T06:25:06.028Z,15.90
2018-09-08T06:27:38.230Z,15.90
2018-09-08T06:30:10.152Z,15.90
2018-09-08T06:32:42.008Z,15.90
2018-09-08T06:35:13.916Z,15.90
2018-09-08T06:37:45.909Z,15.80
2018-09-08T06:40:18.525Z,15.80
2018-09-08T06:42:51.403Z,15.70
2018-09-08T06:45:23.625Z,15.70
2018-09-08T06:47:56.074Z,15.60
2018-09-08T06:50:28.532Z,15.60
2018-09-08T06:53:00.907Z,15.60
2018-09-08T06:55:33.088Z,15.70
2018-09-08T06:58:05.206Z,15.70
2018-09-08T07:00:37.328Z,15.80
2018-09-08T07:03:09.320Z,15.80
2018-09-08T07:05:42.628Z,15.90
2018-09-08T07:08:15.044Z,15.90
2018-09-08T07:10:47.634Z,16.00
2018-09-08T07:13:19.690Z,16.00
2018-09-08T07:15:53.369Z,16.10
2018-09-08T07:18:25.683Z,16.10
2018-09-08T07:20:57.955Z,16.20
2018-09-08T07:23:30.427Z,16.20
2018-09-08T07:26:03.221Z,16.30
2018-09-08T07:28:35.732Z,16.30
2018-09-08T07:31:08.369Z,16.30
2018-09-08T07:33:41.114Z,16.40
2018-09-08T07:36:13.706Z,16.40
2018-09-08T07:38:45.953Z,16.40
2018-09-08T07:41:18.215Z,16.50
2018-09-08T07:43:50.460Z,16.50
2018-09-08T07:46:22.969Z,16.50
2018-09-08T07:48:55.635Z,16.60
2018-09-08T07:51:28.379Z,16.60
2018-09-08T07:54:01.412Z,16.60
2018-09-08T07:56:33.972Z,16.60
2018-09-08T07:59:06.040Z,16.60
2018-09-08T08:01:38.625Z,16.60
2018-09-08T08:04:11.202Z,16.60
2018-09-08T08:06:43.607Z,16.60
2018-09-08T08:09:15.991Z,16.60
2018-09-08T08:11:48.368Z,16.70
2018-09-08T08:14:20.577Z,16.70
2018-09-08T08:16:52.950Z,16.70
2018-09-08T08:19:25.502Z,16.60
2018-09-08T08:21:58.166Z,16.60
2018-09-08T08:24:30.712Z,16.60
2018-09-08T08:27:02.869Z,16.60
2018-09-08T08:29:35.552Z,16.60
2018-09-08T08:32:08.196Z,16.60
2018-09-08T08:34:40.626Z,16.60
2018-09-08T08:37:13.020Z,16.60
2018-09-08T08:39:45.501Z,16.60
2018-09-08T08:42:18.175Z,16.60
2018-09-08T08:44:51.009Z,16.60
2018-09-08T08:47:23.638Z,16.60
2018-09-08T08:50:05.394Z,16.50
2018-09-08T08:52:46.868Z,16.50
2018-09-08T08:55:16.286Z,16.40
2018-09-08T08:57:48.664Z,16.40
2018-09-08T09:00:20.772Z,16.40
2018-09-08T09:02:52.943Z,16.40
2018-09-08T09:05:25.071Z,16.40
2018-09-08T09:07:57.645Z,16.40
2018-09-08T09:10:30.222Z,16.30
2018-09-08T09:13:02.741Z,16.30
2018-09-08T09:15:35.250Z,16.30
2018-09-08T09:18:07.750Z,16.30
2018-09-08T09:20:49.115Z,16.30
2018-09-08T09:25:33.216Z,16.30
2018-09-08T09:28:05.532Z,16.30
2018-09-08T09:30:38.735Z,16.30
2018-09-08T09:33:11.535Z,16.30
2018-09-08T09:35:43.783Z,16.30
2018-09-08T09:38:16.486Z,16.30
2018-09-08T09:40:49.341Z,16.30
2018-09-08T09:43:21.717Z,16.30
2018-09-08T09:45:53.593Z,16.30
2018-09-08T09:48:26.220Z,16.30
2018-09-08T09:50:58.451Z,16.20
2018-09-08T09:53:31.799Z,16.20
2018-09-08T09:56:04.676Z,16.20
2018-09-08T09:58:37.139Z,16.20
2018-09-08T10:01:11.489Z,16.20
2018-09-08T10:03:43.619Z,16.10
2018-09-08T10:06:16.632Z,16.10
2018-09-08T10:08:48.993Z,16.10
2018-09-08T10:11:21.491Z,16.10
2018-09-08T10:13:54.255Z,16.10
2018-09-08T10:16:27.368Z,16.10
2018-09-08T10:18:59.700Z,16.10
2018-09-08T10:21:32.224Z,16.10
2018-09-08T10:24:05.158Z,16.10
2018-09-08T10:26:37.104Z,16.10
2018-09-08T10:29:09.397Z,16.10
2018-09-08T10:31:41.775Z,16.10
2018-09-08T10:34:14.140Z,16.10
2018-09-08T10:36:46.527Z,16.10
2018-09-08T10:39:18.820Z,16.10
2018-09-08T10:41:51.318Z,16.00
2018-09-08T10:44:23.465Z,16.00
2018-09-08T10:46:55.748Z,16.00
2018-09-08T10:49:28.348Z,16.00
2018-09-08T10:52:10.951Z,15.90
2018-09-08T10:54:43.946Z,15.90
2018-09-08T10:57:17.431Z,15.90
2018-09-08T10:59:50.347Z,15.90
2018-09-08T11:02:22.874Z,15.90
2018-09-08T11:04:55.188Z,15.90
2018-09-08T11:07:27.712Z,15.90
2018-09-08T11:10:00.193Z,15.90
2018-09-08T11:12:32.495Z,15.90
2018-09-08T11:15:04.930Z,15.90
2018-09-08T11:17:37.062Z,15.90
2018-09-08T11:20:10.600Z,16.00
2018-09-08T11:22:43.217Z,16.00
2018-09-08T11:25:15.617Z,16.00
2018-09-08T11:27:47.751Z,16.00
2018-09-08T11:30:20.372Z,16.00
2018-09-08T11:32:52.679Z,16.00
2018-09-08T11:35:25.316Z,16.00
2018-09-08T11:37:57.738Z,16.00
2018-09-08T11:40:30.305Z,16.00
2018-09-08T11:43:02.713Z,15.90
2018-09-08T11:45:35.460Z,15.90
2018-09-08T11:48:07.802Z,15.90
2018-09-08T11:50:39.923Z,15.80
2018-09-08T11:53:12.484Z,15.80
2018-09-08T11:55:44.939Z,15.80
2018-09-08T11:58:17.252Z,15.80
2018-09-08T12:00:49.778Z,15.80
2018-09-08T12:03:22.422Z,15.70
2018-09-08T12:05:55.527Z,15.70
2018-09-08T12:08:27.944Z,15.80
2018-09-08T12:11:00.197Z,15.70
2018-09-08T12:13:32.449Z,15.80
2018-09-08T12:16:05.162Z,15.80
2018-09-08T12:18:37.540Z,15.70
2018-09-08T12:21:10.953Z,15.70
2018-09-08T12:23:43.080Z,15.70
2018-09-08T12:26:15.671Z,15.80
2018-09-08T12:28:48.024Z,15.80
2018-09-08T12:31:20.436Z,15.70
2018-09-08T12:33:52.553Z,15.70
2018-09-08T12:36:25.148Z,15.70
2018-09-08T12:38:57.613Z,15.80
2018-09-08T12:41:29.977Z,15.70
2018-09-08T12:44:02.581Z,15.70
2018-09-08T12:46:35.476Z,15.70
2018-09-08T12:49:07.811Z,15.70
2018-09-08T12:51:40.164Z,15.70
2018-09-08T12:54:12.596Z,15.70
2018-09-08T12:56:45.160Z,15.60
2018-09-08T12:59:17.703Z,15.70
2018-09-08T13:01:50.040Z,15.70
2018-09-08T13:04:22.029Z,15.60
2018-09-08T13:06:55.405Z,15.60
2018-09-08T13:09:27.865Z,15.60
2018-09-08T13:12:00.415Z,15.60
2018-09-08T13:14:32.536Z,15.60
2018-09-08T13:17:05.467Z,15.50
2018-09-08T13:19:38.245Z,15.60
2018-09-08T13:22:10.953Z,15.50
2018-09-08T13:24:43.507Z,15.60
2018-09-08T13:27:15.947Z,15.50
2018-09-08T13:29:48.411Z,15.50
2018-09-08T13:32:20.621Z,15.50
2018-09-08T13:34:53.187Z,15.40
2018-09-08T13:37:25.336Z,15.40
2018-09-08T13:39:58.033Z,15.40
2018-09-08T13:42:30.312Z,15.30
2018-09-08T13:45:02.702Z,15.30
2018-09-08T13:47:35.081Z,15.30
2018-09-08T13:50:07.384Z,15.30
2018-09-08T13:52:39.812Z,15.30
2018-09-08T13:55:11.941Z,15.30
2018-09-08T13:57:44.557Z,15.20
2018-09-08T14:00:16.905Z,15.30
2018-09-08T14:02:49.195Z,15.20
2018-09-08T14:05:21.543Z,15.20
2018-09-08T14:07:56.962Z,15.20
2018-09-08T14:10:29.320Z,15.30
2018-09-08T14:13:01.940Z,15.30
2018-09-08T14:15:34.440Z,15.30
2018-09-08T14:18:06.704Z,15.40
2018-09-08T14:20:39.239Z,15.40
2018-09-08T14:23:11.897Z,15.40
2018-09-08T14:25:44.345Z,15.40
2018-09-08T14:28:16.835Z,15.40
2018-09-08T14:30:49.425Z,15.50
2018-09-08T14:33:21.775Z,15.50
2018-09-08T14:35:53.895Z,15.50
2018-09-08T14:38:26.468Z,15.50
2018-09-08T14:40:59.258Z,15.50
2018-09-08T14:43:31.583Z,15.50
2018-09-08T14:46:03.664Z,15.60
2018-09-08T14:48:35.895Z,15.60
2018-09-08T14:51:08.495Z,15.70
2018-09-08T14:53:40.726Z,15.70
2018-09-08T14:56:13.364Z,15.80
2018-09-08T14:58:45.919Z,15.90
2018-09-08T15:01:18.760Z,15.90
2018-09-08T15:03:51.064Z,15.90
2018-09-08T15:06:23.482Z,16.00
2018-09-08T15:08:55.788Z,16.10
2018-09-08T15:11:28.144Z,16.20
2018-09-08T15:14:00.239Z,16.30
2018-09-08T15:16:32.679Z,16.30
2018-09-08T15:19:04.831Z,16.40
2018-09-08T15:21:37.182Z,16.50
2018-09-08T15:24:09.761Z,16.60
2018-09-08T15:26:42.149Z,16.70
2018-09-08T15:29:14.654Z,16.70
2018-09-08T15:31:47.001Z,16.90
2018-09-08T15:34:19.124Z,16.80
2018-09-08T15:36:51.521Z,16.90
2018-09-08T15:39:23.920Z,16.90
2018-09-08T15:41:56.163Z,17.00
2018-09-08T15:44:29.260Z,17.10
2018-09-08T15:47:01.899Z,17.20
2018-09-08T15:49:34.477Z,17.30
2018-09-08T15:52:06.886Z,17.40
2018-09-08T15:54:39.288Z,17.40
2018-09-08T15:57:11.784Z,17.40
2018-09-08T15:59:43.980Z,17.40
2018-09-08T16:02:16.743Z,17.40
2018-09-08T16:04:49.268Z,17.40
2018-09-08T16:07:21.504Z,17.50
2018-09-08T16:09:54.081Z,17.50
2018-09-08T16:12:26.658Z,17.60
2018-09-08T16:14:59.017Z,17.70
2018-09-08T16:17:31.456Z,17.80
2018-09-08T16:20:03.681Z,17.90
2018-09-08T16:22:36.225Z,18.10
2018-09-08T16:25:08.887Z,18.40
2018-09-08T16:27:41.010Z,18.60
2018-09-08T16:30:13.122Z,18.90
2018-09-08T16:32:45.478Z,19.20
2018-09-08T16:35:17.664Z,19.20
2018-09-08T16:37:50.233Z,19.40
2018-09-08T16:40:22.704Z,19.30
2018-09-08T16:42:55.039Z,19.40
2018-09-08T16:45:27.457Z,19.60
2018-09-08T16:47:59.943Z,19.70
2018-09-08T16:50:32.329Z,19.70
2018-09-08T16:53:04.389Z,19.70
2018-09-08T16:55:36.764Z,19.70
2018-09-08T16:58:09.368Z,19.70
2018-09-08T17:00:41.800Z,19.70
2018-09-08T17:03:13.980Z,19.80
2018-09-08T17:05:46.539Z,19.90
2018-09-08T17:08:19.929Z,19.80
2018-09-08T17:10:52.501Z,19.90
2018-09-08T17:13:24.704Z,19.90
2018-09-08T17:15:56.827Z,20.00
2018-09-08T17:18:29.661Z,20.00
2018-09-08T17:21:01.999Z,20.00
2018-09-08T17:23:34.375Z,20.20
2018-09-08T17:26:06.752Z,20.30
2018-09-08T17:28:39.450Z,20.30
2018-09-08T17:31:11.920Z,20.30
2018-09-08T17:33:44.269Z,20.30
2018-09-08T17:36:16.349Z,20.30
2018-09-08T17:38:49.073Z,20.40
2018-09-08T17:41:21.095Z,20.60
2018-09-08T17:43:53.427Z,20.70
2018-09-08T17:46:25.666Z,21.00
2018-09-08T17:48:58.365Z,21.20
2018-09-08T17:51:31.241Z,21.30
2018-09-08T17:54:03.574Z,21.20
2018-09-08T17:56:35.907Z,21.30
2018-09-08T17:59:08.750Z,21.50
2018-09-08T18:01:41.233Z,21.40
2018-09-08T18:04:13.288Z,21.50
2018-09-08T18:06:46.015Z,21.40
2018-09-08T18:09:18.649Z,21.40
2018-09-08T18:11:51.080Z,21.30
2018-09-08T18:14:23.364Z,21.20
2018-09-08T18:16:56.121Z,21.10
2018-09-08T18:19:28.602Z,21.20
2018-09-08T18:22:01.175Z,21.30
2018-09-08T18:24:33.601Z,21.50
2018-09-08T18:27:05.684Z,21.40
2018-09-08T18:29:38.686Z,21.70
2018-09-08T18:32:11.081Z,21.70
2018-09-08T18:34:43.670Z,21.90
2018-09-08T18:37:16.028Z,21.90
2018-09-08T18:39:48.424Z,22.10
2018-09-08T18:42:21.010Z,22.20
2018-09-08T18:44:53.616Z,22.30
2018-09-08T18:47:26.759Z,22.30
2018-09-08T18:49:59.317Z,22.50
2018-09-08T18:52:31.730Z,22.60
2018-09-08T18:55:03.875Z,22.60
2018-09-08T18:57:36.102Z,22.60
2018-09-08T19:00:08.484Z,22.80
2018-09-08T19:02:40.571Z,22.90
2018-09-08T19:05:12.932Z,22.80
2018-09-08T19:07:46.487Z,22.70
2018-09-08T19:10:19.221Z,22.60
2018-09-08T19:12:51.843Z,22.80
2018-09-08T19:15:24.195Z,22.70
2018-09-08T19:17:57.037Z,22.70
2018-09-08T19:20:33.853Z,22.70
2018-09-08T19:23:05.903Z,22.90
2018-09-08T19:25:38.578Z,22.90
2018-09-08T19:28:11.167Z,23.00
2018-09-08T19:30:43.622Z,22.70
2018-09-08T19:33:22.348Z,22.80
2018-09-08T19:35:54.178Z,22.60
2018-09-08T19:38:26.028Z,22.70
2018-09-08T19:40:58.398Z,22.60
2018-09-08T19:43:30.860Z,22.70
2018-09-08T19:46:07.480Z,22.60
2018-09-08T19:48:39.685Z,22.50
2018-09-08T19:51:11.908Z,22.70
2018-09-08T19:54:02.635Z,23.00
2018-09-08T19:56:39.660Z,23.00
2018-09-08T19:59:11.589Z,23.00
2018-09-08T20:01:43.548Z,23.10
2018-09-08T20:04:16.603Z,23.20
2018-09-08T20:06:48.992Z,23.30
2018-09-08T20:09:21.051Z,23.40
2018-09-08T20:11:53.303Z,23.50
2018-09-08T20:14:25.534Z,23.50
2018-09-08T20:16:58.684Z,23.50
2018-09-08T20:19:31.257Z,23.40
2018-09-08T20:22:03.195Z,23.40
2018-09-08T20:24:35.656Z,23.60
2018-09-08T20:27:08.378Z,23.60
2018-09-08T20:29:41.160Z,23.60
2018-09-08T20:32:13.551Z,23.70
2018-09-08T20:34:45.752Z,23.70
2018-09-08T20:37:17.602Z,23.70
2018-09-08T20:39:50.165Z,23.60
2018-09-08T20:42:22.716Z,23.60
2018-09-08T20:44:55.156Z,23.60
2018-09-08T20:47:27.324Z,23.50
2018-09-08T20:49:59.700Z,23.30
2018-09-08T20:52:32.104Z,23.40
2018-09-08T20:55:04.536Z,23.50
2018-09-08T20:57:36.886Z,23.70
2018-09-08T21:00:09.335Z,24.00
2018-09-08T21:02:41.719Z,23.70
2018-09-08T21:05:14.339Z,23.70
2018-09-08T21:07:47.020Z,24.00
2018-09-08T21:10:19.558Z,24.10
2018-09-08T21:12:52.197Z,24.10
2018-09-08T21:15:24.697Z,23.90
2018-09-08T21:17:56.844Z,23.90
2018-09-08T21:20:28.974Z,24.00
2018-09-08T21:23:01.521Z,24.20
2018-09-08T21:25:33.700Z,23.90
2018-09-08T21:28:06.501Z,23.70
2018-09-08T21:30:39.136Z,23.90
2018-09-08T21:33:11.252Z,23.60
2018-09-08T21:35:44.075Z,23.50
2018-09-08T21:38:16.621Z,23.40
2018-09-08T21:40:49.191Z,23.60
2018-09-08T21:43:22.236Z,23.60
2018-09-08T21:45:54.964Z,23.50
2018-09-08T21:48:27.436Z,23.60
2018-09-08T21:51:00.113Z,23.40
2018-09-08T21:53:32.438Z,23.40
2018-09-08T21:56:05.861Z,23.50
2018-09-08T21:58:38.259Z,23.50
2018-09-08T22:01:15.033Z,23.30
2018-09-08T22:03:47.338Z,23.20
2018-09-08T22:06:20.707Z,22.90
2018-09-08T22:08:53.120Z,22.70
2018-09-08T22:11:25.982Z,22.70
2018-09-08T22:13:58.565Z,22.90
2018-09-08T22:16:30.750Z,22.90
2018-09-08T22:19:03.756Z,23.00
2018-09-08T22:21:37.065Z,23.20
2018-09-08T22:24:09.795Z,23.30
2018-09-08T22:26:41.949Z,23.40
2018-09-08T22:29:14.768Z,23.30
2018-09-08T22:31:47.317Z,23.30
2018-09-08T22:34:19.467Z,23.40
2018-09-08T22:36:52.070Z,23.20
2018-09-08T22:39:24.533Z,23.20
2018-09-08T22:41:56.922Z,23.10
2018-09-08T22:44:29.255Z,23.10
2018-09-08T22:47:01.859Z,23.20
2018-09-08T22:49:34.206Z,23.40
2018-09-08T22:52:06.844Z,23.50
2018-09-08T22:54:39.472Z,23.60
2018-09-08T22:57:11.810Z,23.60
2018-09-08T22:59:44.454Z,23.60
2018-09-08T23:02:16.775Z,23.70
2018-09-08T23:04:49.647Z,23.70
2018-09-08T23:07:21.936Z,23.80
2018-09-08T23:09:54.506Z,23.50
2018-09-08T23:12:26.715Z,23.60
2018-09-08T23:14:59.594Z,23.60
2018-09-08T23:17:32.374Z,23.60
2018-09-08T23:20:04.800Z,23.70
2018-09-08T23:22:37.356Z,23.70
2018-09-08T23:25:09.979Z,23.70
2018-09-08T23:27:42.450Z,23.60
2018-09-08T23:30:15.289Z,23.60
2018-09-08T23:32:47.770Z,23.60
2018-09-08T23:35:20.167Z,23.50
2018-09-08T23:37:52.317Z,23.50
2018-09-08T23:40:24.930Z,23.40
2018-09-08T23:42:57.100Z,23.30
2018-09-08T23:45:29.474Z,23.30
2018-09-08T23:48:02.458Z,23.30
2018-09-08T23:50:34.399Z,23.10
2018-09-08T23:53:06.431Z,23.00
2018-09-08T23:55:38.608Z,23.10
2018-09-08T23:58:10.905Z,23.10
